Time;durP1;ratioP1;P1;durP2;ratioP2;P2;SDS_P1;SDS_P2;PMS_P1;PMS_P2;Temp;Humidity;BMP_temperature;BMP_pressure;BME280_temperature;BME280_humidity;BME280_pressure;Samples;Min_cycle;Max_cycle;Signal;HPM_P1;HPM_P2
2023/01/13 00:00:05;;;;;;;1.30;0.80;;;9.30;99.90;;;;;;5001605;28;20313;-79
2023/01/13 00:02:38;;;;;;;1.27;0.73;;;9.30;99.90;;;;;;5004517;28;20219;-79
2023/01/13 00:05:06;;;;;;;1.20;0.77;;;9.30;99.90;;;;;;5002614;28;20768;-79
2023/01/13 00:07:32;;;;;;;0.73;0.60;;;9.30;99.90;;;;;;5004674;28;20627;-79
2023/01/13 00:09:59;;;;;;;1.47;0.67;;;9.30;99.90;;;;;;4987756;28;20228;-78
2023/01/13 00:12:27;;;;;;;0.57;0.50;;;9.30;99.90;;;;;;5005738;28;20255;-79
2023/01/13 00:14:54;;;;;;;1.00;0.80;;;9.20;99.90;;;;;;4982695;28;20213;-79
2023/01/13 00:17:22;;;;;;;2.10;1.17;;;9.20;99.90;;;;;;4990849;28;20220;-79
2023/01/13 00:19:48;;;;;;;1.37;0.70;;;9.20;99.90;;;;;;5003793;28;20463;-79
2023/01/13 00:22:15;;;;;;;0.60;0.60;;;9.20;99.90;;;;;;5006284;28;20306;-78
2023/01/13 00:24:42;;;;;;;1.97;0.70;;;9.20;99.90;;;;;;5007748;28;20238;-79
2023/01/13 00:27:08;;;;;;;1.77;0.80;;;9.20;99.90;;;;;;5005732;28;20235;-78
2023/01/13 00:29:36;;;;;;;1.10;0.80;;;9.20;99.90;;;;;;4995751;28;20348;-79
2023/01/13 00:32:04;;;;;;;1.30;0.90;;;9.20;99.90;;;;;;4991621;28;20808;-78
2023/01/13 00:34:31;;;;;;;3.17;1.00;;;9.20;99.90;;;;;;4989373;28;20231;-78
2023/01/13 00:36:58;;;;;;;1.47;0.93;;;9.10;99.90;;;;;;4995749;28;20262;-78
2023/01/13 00:39:25;;;;;;;0.97;0.70;;;9.10;99.90;;;;;;5007665;28;20474;-79
2023/01/13 00:44:38;;;;;;;3.20;0.93;;;9.00;99.90;;;;;;5011449;28;20226;-79
2023/01/13 00:47:05;;;;;;;1.90;0.60;;;8.90;99.90;;;;;;4992338;28;20243;-79
2023/01/13 00:49:32;;;;;;;2.90;0.70;;;9.00;99.90;;;;;;5006080;28;20240;-79
2023/01/13 00:51:59;;;;;;;3.93;0.90;;;8.90;99.90;;;;;;4986105;28;21755;-79
2023/01/13 00:54:26;;;;;;;3.23;0.97;;;8.90;99.90;;;;;;4990804;28;20242;-79
2023/01/13 00:56:53;;;;;;;1.93;1.00;;;8.80;99.90;;;;;;5009099;28;20740;-79
2023/01/13 00:59:21;;;;;;;4.13;1.27;;;8.70;99.90;;;;;;5003005;28;20219;-79
2023/01/13 01:01:49;;;;;;;4.00;0.80;;;8.70;99.90;;;;;;4997783;28;20263;-78
2023/01/13 01:04:16;;;;;;;3.77;0.87;;;8.60;99.90;;;;;;5011206;28;20230;-78
2023/01/13 01:06:43;;;;;;;3.13;0.80;;;8.50;99.90;;;;;;5004339;28;20317;-79
2023/01/13 01:09:13;;;;;;;3.17;0.80;;;8.50;99.90;;;;;;5007670;28;20240;-79
2023/01/13 01:11:40;;;;;;;2.80;0.90;;;8.40;99.90;;;;;;4990279;28;20242;-80
2023/01/13 01:14:07;;;;;;;1.97;0.93;;;8.40;99.90;;;;;;4994008;28;20222;-79
2023/01/13 01:16:34;;;;;;;2.77;0.90;;;8.30;99.90;;;;;;5005073;28;20256;-79
2023/01/13 01:19:02;;;;;;;4.07;1.43;;;8.30;99.90;;;;;;4994898;28;20958;-80
2023/01/13 01:21:29;;;;;;;2.90;1.07;;;8.20;99.90;;;;;;4980289;28;20334;-79
2023/01/13 01:23:59;;;;;;;3.07;1.00;;;8.20;99.90;;;;;;5004802;28;20219;-80
2023/01/13 01:26:27;;;;;;;1.57;0.70;;;8.10;99.90;;;;;;5004798;28;20277;-79
2023/01/13 01:28:55;;;;;;;2.23;0.90;;;8.10;99.90;;;;;;5001152;28;20230;-79
2023/01/13 01:31:24;;;;;;;2.83;1.00;;;8.10;99.90;;;;;;4989395;28;20216;-79
2023/01/13 01:33:51;;;;;;;5.30;1.20;;;8.00;99.90;;;;;;5002884;28;20234;-78
2023/01/13 01:36:22;;;;;;;6.50;1.17;;;8.00;99.90;;;;;;4982087;28;20309;-79
2023/01/13 01:38:50;;;;;;;4.80;1.20;;;8.00;99.90;;;;;;4985650;28;20218;-78
2023/01/13 01:41:20;;;;;;;7.70;1.53;;;8.00;99.90;;;;;;5005512;28;20230;-79
2023/01/13 01:44:05;;;;;;;4.70;1.10;;;7.90;99.90;;;;;;4990355;28;20261;-79
2023/01/13 01:46:34;;;;;;;4.70;1.30;;;7.90;99.90;;;;;;5000630;28;20221;-79
2023/01/13 01:49:08;;;;;;;4.33;1.37;;;7.90;99.90;;;;;;5000891;28;20855;-79
2023/01/13 01:51:40;;;;;;;4.57;1.33;;;7.80;99.90;;;;;;4986759;28;20220;-78
2023/01/13 01:54:11;;;;;;;6.80;1.70;;;7.70;99.90;;;;;;5000352;28;20309;-79
2023/01/13 01:56:41;;;;;;;4.13;1.57;;;7.70;99.90;;;;;;5003629;28;20283;-79
2023/01/13 01:59:08;;;;;;;3.67;2.07;;;7.60;99.90;;;;;;5004617;28;20225;-79
2023/01/13 02:01:37;;;;;;;6.63;1.50;;;7.60;99.90;;;;;;5002624;28;20278;-79
2023/01/13 02:04:11;;;;;;;7.43;1.63;;;7.60;99.90;;;;;;5004465;28;20220;-80
2023/01/13 02:06:41;;;;;;;6.67;1.50;;;7.50;99.90;;;;;;4990663;28;20227;-79
2023/01/13 02:09:09;;;;;;;8.13;1.70;;;7.50;99.90;;;;;;4985765;28;20218;-79
2023/01/13 02:14:23;;;;;;;6.30;1.60;;;7.50;99.90;;;;;;5003769;28;20698;-79
2023/01/13 02:17:07;;;;;;;5.43;1.53;;;7.50;99.90;;;;;;4991079;28;20258;-79
2023/01/13 02:20:21;;;;;;;5.40;1.37;;;7.40;99.90;;;;;;5005942;28;20265;-79
2023/01/13 02:24:52;;;;;;;5.77;1.20;;;7.40;99.90;;;;;;5006620;28;20803;-80
2023/01/13 02:26:15;;;;;;;7.33;1.67;;;7.40;99.90;;;;;;5000069;28;20291;-80
2023/01/13 02:31:44;;;;;;;5.93;1.70;;;7.30;99.90;;;;;;4956043;28;20225;-80
2023/01/13 02:34:19;;;;;;;6.97;2.00;;;7.30;99.90;;;;;;5003468;28;20257;-80
2023/01/13 02:36:51;;;;;;;8.70;1.97;;;7.30;99.90;;;;;;4987444;28;20838;-80
2023/01/13 02:39:23;;;;;;;8.10;2.03;;;7.30;99.90;;;;;;5010373;28;20826;-80
2023/01/13 02:44:45;;;;;;;10.03;2.30;;;7.30;99.90;;;;;;4998722;28;20219;-80
2023/01/13 02:47:18;;;;;;;7.97;2.50;;;7.30;99.90;;;;;;4992854;28;20314;-79
2023/01/13 02:49:48;;;;;;;8.00;2.20;;;7.30;99.90;;;;;;4984136;28;20231;-80
2023/01/13 02:52:20;;;;;;;12.03;3.07;;;7.30;99.90;;;;;;5001467;28;20278;-80
2023/01/13 02:54:55;;;;;;;10.77;2.40;;;7.30;99.90;;;;;;5001103;28;20300;-80
2023/01/13 02:57:24;;;;;;;15.53;2.47;;;7.30;99.90;;;;;;5007009;28;20241;-80
2023/01/13 02:59:54;;;;;;;8.80;2.57;;;7.30;99.90;;;;;;5002438;28;20310;-79
2023/01/13 03:02:23;;;;;;;9.77;2.00;;;7.30;99.90;;;;;;4984889;28;20254;-81
2023/01/13 03:04:55;;;;;;;8.67;1.63;;;7.20;99.90;;;;;;5000608;28;20433;-81
2023/01/13 03:07:57;;;;;;;8.53;2.03;;;7.20;99.90;;;;;;5002271;28;20231;-80
2023/01/13 03:11:03;;;;;;;13.17;2.43;;;7.20;99.90;;;;;;4999915;28;20238;-81
2023/01/13 03:14:02;;;;;;;8.87;2.10;;;7.20;99.90;;;;;;5003255;28;20449;-80
2023/01/13 03:16:35;;;;;;;7.87;2.23;;;7.20;99.90;;;;;;5004801;28;20239;-80
2023/01/13 03:19:20;;;;;;;9.47;1.90;;;7.20;99.90;;;;;;5005632;28;20282;-79
2023/01/13 03:21:53;;;;;;;9.00;2.10;;;7.20;99.90;;;;;;5001231;28;20242;-80
2023/01/13 03:24:24;;;;;;;10.87;2.50;;;7.10;99.90;;;;;;4997976;28;20233;-81
2023/01/13 03:26:58;;;;;;;7.83;2.17;;;7.10;99.90;;;;;;5002489;28;20961;-80
2023/01/13 03:29:30;;;;;;;7.77;1.97;;;7.10;99.90;;;;;;4997922;28;20233;-80
2023/01/13 03:32:05;;;;;;;10.13;2.20;;;7.10;99.90;;;;;;5003335;28;20244;-79
2023/01/13 03:34:37;;;;;;;5.83;1.90;;;7.20;99.90;;;;;;5009732;28;20243;-79
2023/01/13 03:37:08;;;;;;;9.00;2.10;;;7.20;99.90;;;;;;4986322;28;20230;-80
2023/01/13 03:39:39;;;;;;;8.17;2.33;;;7.20;99.90;;;;;;5008618;28;20979;-79
2023/01/13 03:42:10;;;;;;;6.97;2.20;;;7.20;99.90;;;;;;4992541;28;20235;-79
2023/01/13 03:44:41;;;;;;;11.43;2.53;;;7.30;99.90;;;;;;4986628;28;20305;-79
2023/01/13 03:47:20;;;;;;;12.33;2.50;;;7.30;99.90;;;;;;5007694;28;20664;-80
2023/01/13 03:49:54;;;;;;;12.63;3.10;;;7.30;99.90;;;;;;5002800;28;20238;-80
2023/01/13 03:52:26;;;;;;;12.50;3.20;;;7.30;99.90;;;;;;5003055;28;20305;-80
2023/01/13 03:54:58;;;;;;;12.13;2.73;;;7.30;99.90;;;;;;4991864;28;20226;-80
2023/01/13 03:57:31;;;;;;;12.47;3.33;;;7.20;99.90;;;;;;4985875;28;20241;-79
2023/01/13 04:00:00;;;;;;;22.47;3.63;;;7.20;99.90;;;;;;5007610;28;20798;-80
2023/01/13 04:02:40;;;;;;;21.53;3.77;;;7.20;99.90;;;;;;5004366;28;20982;-80
2023/01/13 04:05:10;;;;;;;21.57;4.00;;;7.10;99.90;;;;;;4985145;28;20221;-80
2023/01/13 04:07:45;;;;;;;14.73;3.20;;;7.10;99.90;;;;;;5001093;28;20299;-81
2023/01/13 04:10:17;;;;;;;17.83;3.73;;;7.10;99.90;;;;;;4988304;28;20297;-80
2023/01/13 04:13:02;;;;;;;19.83;3.73;;;7.00;99.90;;;;;;5005023;28;20221;-80
2023/01/13 04:15:33;;;;;;;12.33;3.07;;;7.00;99.90;;;;;;5002861;28;20233;-80
2023/01/13 04:18:15;;;;;;;20.53;3.60;;;6.90;99.90;;;;;;4991512;28;20902;-81
2023/01/13 04:20:45;;;;;;;16.20;3.07;;;6.90;99.90;;;;;;5012404;28;20540;-80
2023/01/13 04:23:13;;;;;;;15.77;3.30;;;6.80;99.90;;;;;;4993690;28;20794;-80
2023/01/13 04:25:42;;;;;;;11.67;3.37;;;6.80;99.90;;;;;;5001848;28;20236;-81
2023/01/13 04:28:09;;;;;;;14.30;3.30;;;6.70;99.90;;;;;;4987923;28;20323;-80
2023/01/13 04:30:39;;;;;;;13.23;3.10;;;6.70;99.90;;;;;;5005050;28;20279;-80
2023/01/13 04:33:06;;;;;;;20.10;4.13;;;6.60;99.90;;;;;;5003117;28;20292;-80
2023/01/13 04:35:34;;;;;;;17.93;3.63;;;6.60;99.90;;;;;;5006582;28;20308;-80
2023/01/13 04:38:07;;;;;;;15.57;4.07;;;6.50;99.90;;;;;;4982878;28;20282;-80
2023/01/13 04:40:34;;;;;;;16.13;3.47;;;6.50;99.90;;;;;;5007410;28;20765;-79
2023/01/13 04:43:04;;;;;;;17.43;3.50;;;6.50;99.90;;;;;;4992808;28;20225;-80
2023/01/13 04:45:31;;;;;;;20.93;4.30;;;6.50;99.90;;;;;;4991896;28;20248;-80
2023/01/13 04:47:58;;;;;;;15.23;3.33;;;6.40;99.90;;;;;;4989634;28;20225;-81
2023/01/13 04:50:25;;;;;;;13.93;3.60;;;6.30;99.90;;;;;;5012294;28;20256;-80
2023/01/13 04:52:53;;;;;;;17.50;3.43;;;6.30;99.90;;;;;;5012879;28;21497;-81
2023/01/13 04:55:23;;;;;;;23.57;4.53;;;6.20;99.90;;;;;;5006987;28;20273;-81
2023/01/13 04:57:50;;;;;;;16.63;3.50;;;6.20;99.90;;;;;;5005864;28;20229;-81
2023/01/13 05:00:19;;;;;;;11.53;2.97;;;6.20;99.90;;;;;;4992462;28;20231;-80
2023/01/13 05:02:45;;;;;;;15.50;3.30;;;6.10;99.90;;;;;;4994109;28;20216;-79
2023/01/13 05:05:12;;;;;;;15.20;3.17;;;6.10;99.90;;;;;;4997369;28;20321;-80
2023/01/13 05:07:39;;;;;;;16.30;3.37;;;6.10;99.90;;;;;;5005267;28;20234;-81
2023/01/13 05:10:06;;;;;;;16.43;4.70;;;6.10;99.90;;;;;;5002054;28;20234;-83
2023/01/13 05:18:04;;;;;;;16.13;3.50;;;6.10;99.90;;;;;;5006253;28;20217;-82
2023/01/13 05:20:31;;;;;;;18.70;2.90;;;6.00;99.90;;;;;;5001417;28;20307;-83
2023/01/13 05:25:43;;;;;;;11.93;3.10;;;5.90;99.90;;;;;;4987107;28;20250;-83
2023/01/13 05:28:12;;;;;;;19.07;3.43;;;5.90;99.90;;;;;;4999197;28;20235;-81
2023/01/13 05:30:42;;;;;;;13.07;3.23;;;5.90;99.90;;;;;;4996708;28;20692;-81
2023/01/13 05:33:08;;;;;;;17.70;3.33;;;6.00;99.90;;;;;;4985164;28;20221;-83
2023/01/13 05:35:38;;;;;;;19.53;3.13;;;5.90;99.90;;;;;;5005543;28;20231;-81
2023/01/13 05:38:04;;;;;;;18.73;4.20;;;5.90;99.90;;;;;;4983940;28;21870;-81
2023/01/13 05:43:23;;;;;;;22.07;4.03;;;6.00;99.90;;;;;;4986310;28;20295;-83
2023/01/13 05:45:53;;;;;;;20.67;3.63;;;5.90;99.90;;;;;;5001588;28;20230;-81
2023/01/13 05:48:21;;;;;;;19.03;3.80;;;5.90;99.90;;;;;;4986731;28;20240;-81
2023/01/13 05:50:49;;;;;;;13.37;3.43;;;5.80;99.90;;;;;;5006215;28;20238;-82
2023/01/13 05:53:16;;;;;;;18.17;4.03;;;5.90;99.90;;;;;;5006268;28;20230;-81
2023/01/13 05:55:46;;;;;;;15.80;3.30;;;5.90;99.90;;;;;;4988590;28;20234;-81
2023/01/13 05:58:14;;;;;;;16.17;3.53;;;5.90;99.90;;;;;;4999983;28;20228;-81
2023/01/13 06:00:42;;;;;;;15.90;3.63;;;5.90;99.90;;;;;;4976704;28;20231;-82
2023/01/13 06:03:09;;;;;;;15.17;3.73;;;5.90;99.90;;;;;;4971089;28;20240;-82
2023/01/13 06:05:37;;;;;;;18.43;4.00;;;6.00;99.90;;;;;;5002429;28;20238;-83
2023/01/13 06:08:05;;;;;;;14.73;3.53;;;6.00;99.90;;;;;;5000157;28;20280;-82
2023/01/13 06:10:32;;;;;;;19.27;3.50;;;6.10;99.90;;;;;;4997593;28;20233;-82
2023/01/13 06:12:59;;;;;;;20.70;3.90;;;6.10;99.90;;;;;;4997159;28;20332;-81
2023/01/13 06:15:26;;;;;;;16.53;3.47;;;6.10;99.90;;;;;;5004193;28;20635;-82
2023/01/13 06:21:05;;;;;;;15.70;3.93;;;6.20;99.90;;;;;;4954202;28;20251;-82
2023/01/13 06:23:33;;;;;;;15.03;3.67;;;6.20;99.90;;;;;;5006476;28;20219;-81
2023/01/13 06:26:06;;;;;;;16.73;3.43;;;6.20;99.90;;;;;;4999506;28;20452;-81
2023/01/13 06:28:33;;;;;;;19.37;4.27;;;6.10;99.90;;;;;;5005334;28;20649;-83
2023/01/13 06:31:04;;;;;;;20.37;3.97;;;6.20;99.90;;;;;;4985574;28;20283;-82
2023/01/13 06:33:36;;;;;;;10.77;3.10;;;6.20;99.90;;;;;;5000120;28;20222;-82
2023/01/13 06:36:07;;;;;;;14.47;3.67;;;6.20;99.90;;;;;;5002513;28;20230;-82
2023/01/13 06:38:39;;;;;;;12.73;3.17;;;6.20;99.90;;;;;;5003456;28;20228;-82
2023/01/13 06:41:07;;;;;;;14.50;3.73;;;6.20;99.90;;;;;;4996728;28;20226;-82
2023/01/13 06:43:33;;;;;;;17.47;3.57;;;6.20;99.90;;;;;;4998085;28;20246;-82
2023/01/13 06:46:01;;;;;;;16.40;4.30;;;6.20;99.90;;;;;;4996170;28;20236;-82
2023/01/13 06:48:31;;;;;;;13.60;3.40;;;6.20;99.90;;;;;;4988591;28;20221;-82
2023/01/13 06:50:59;;;;;;;14.03;3.63;;;6.20;99.90;;;;;;4999681;28;20242;-82
2023/01/13 06:53:26;;;;;;;13.13;3.20;;;6.20;99.90;;;;;;4994909;28;20233;-82
2023/01/13 06:55:53;;;;;;;19.13;3.70;;;6.20;99.90;;;;;;4994562;28;20689;-82
2023/01/13 06:58:19;;;;;;;14.57;3.20;;;6.20;99.90;;;;;;4984759;28;20319;-82
2023/01/13 07:00:48;;;;;;;15.77;4.03;;;6.20;99.90;;;;;;4986020;28;20883;-82
2023/01/13 07:03:17;;;;;;;15.17;3.20;;;6.20;99.90;;;;;;4990161;28;20916;-82
2023/01/13 07:05:51;;;;;;;14.13;3.97;;;6.20;99.90;;;;;;4998757;28;20247;-82
2023/01/13 07:08:19;;;;;;;14.27;3.47;;;6.20;99.90;;;;;;4987570;28;20231;-82
2023/01/13 07:10:45;;;;;;;17.57;5.20;;;6.30;99.90;;;;;;4992382;28;20232;-82
2023/01/13 07:16:02;;;;;;;16.10;3.20;;;6.20;99.90;;;;;;4987786;28;20293;-82
2023/01/13 07:18:31;;;;;;;13.43;3.57;;;6.30;99.90;;;;;;4989033;28;20264;-82
2023/01/13 07:20:59;;;;;;;14.83;3.93;;;6.30;99.90;;;;;;5002690;28;20279;-82
2023/01/13 07:23:29;;;;;;;13.33;4.03;;;6.30;99.90;;;;;;4987712;28;20312;-83
2023/01/13 07:25:56;;;;;;;13.57;3.30;;;6.30;99.90;;;;;;4990367;28;20229;-82
2023/01/13 07:28:22;;;;;;;15.63;3.60;;;6.40;99.90;;;;;;4983056;28;20331;-82
2023/01/13 07:30:49;;;;;;;16.17;4.63;;;6.40;99.90;;;;;;4975488;28;20350;-83
2023/01/13 07:33:17;;;;;;;17.47;3.53;;;6.50;99.90;;;;;;4992286;28;20305;-83
2023/01/13 07:35:47;;;;;;;15.07;3.67;;;6.50;99.90;;;;;;4976681;28;20746;-83
2023/01/13 07:38:14;;;;;;;15.67;3.80;;;6.50;99.90;;;;;;4999145;28;20233;-82
2023/01/13 07:40:44;;;;;;;14.70;3.40;;;6.60;99.90;;;;;;5000704;28;20221;-82
2023/01/13 07:46:01;;;;;;;14.97;4.07;;;6.60;99.90;;;;;;4992691;28;20269;-82
2023/01/13 07:48:29;;;;;;;15.60;3.90;;;6.60;99.90;;;;;;5003293;28;20233;-83
2023/01/13 07:50:56;;;;;;;11.70;3.73;;;6.60;99.90;;;;;;4999983;28;20736;-83
2023/01/13 07:53:24;;;;;;;15.70;4.13;;;6.60;99.90;;;;;;5002216;28;20712;-82
2023/01/13 07:55:55;;;;;;;17.50;3.80;;;6.70;99.90;;;;;;5001687;28;20232;-82
2023/01/13 07:58:22;;;;;;;14.57;4.17;;;6.60;99.90;;;;;;5000532;28;20230;-82
2023/01/13 08:00:51;;;;;;;21.37;4.13;;;6.70;99.90;;;;;;5002386;28;20268;-82
2023/01/13 08:03:17;;;;;;;16.23;3.93;;;6.60;99.90;;;;;;4981667;28;20664;-82
2023/01/13 08:05:44;;;;;;;12.83;3.87;;;6.70;99.90;;;;;;5003899;28;20264;-82
2023/01/13 08:08:11;;;;;;;18.13;3.37;;;6.60;99.90;;;;;;5001135;28;20220;-82
2023/01/13 08:10:40;;;;;;;15.50;4.10;;;6.60;99.90;;;;;;4984945;28;20236;-82
2023/01/13 08:13:19;;;;;;;17.63;3.90;;;6.60;99.90;;;;;;4999512;28;20234;-84
2023/01/13 08:15:48;;;;;;;20.83;4.77;;;6.50;99.90;;;;;;5004828;28;20317;-84
2023/01/13 08:18:20;;;;;;;18.23;4.10;;;6.60;99.90;;;;;;4985904;28;20231;-83
2023/01/13 08:20:47;;;;;;;16.67;4.23;;;6.50;99.90;;;;;;4998887;28;20261;-84
2023/01/13 08:23:14;;;;;;;17.47;4.17;;;6.60;99.90;;;;;;4977807;28;20263;-82
2023/01/13 08:25:40;;;;;;;15.87;3.77;;;6.50;99.90;;;;;;5001667;28;20260;-83
2023/01/13 08:28:07;;;;;;;15.93;3.70;;;6.60;99.90;;;;;;5004103;28;20783;-82
2023/01/13 08:30:35;;;;;;;17.90;3.80;;;6.60;99.90;;;;;;4984216;28;21958;-82
2023/01/13 08:33:06;;;;;;;15.53;3.70;;;6.60;99.90;;;;;;4988493;28;20221;-82
2023/01/13 08:35:32;;;;;;;16.50;4.17;;;6.60;99.90;;;;;;5005004;28;20234;-82
2023/01/13 08:37:59;;;;;;;16.77;4.57;;;6.70;99.90;;;;;;4985848;28;20227;-82
2023/01/13 08:40:26;;;;;;;17.57;3.63;;;6.70;99.90;;;;;;4999100;28;21032;-81
2023/01/13 08:42:55;;;;;;;13.80;3.80;;;6.80;99.90;;;;;;5002998;28;20312;-82
2023/01/13 08:45:22;;;;;;;15.70;3.93;;;6.90;99.90;;;;;;5000105;28;20253;-82
2023/01/13 08:47:50;;;;;;;16.80;4.00;;;7.00;99.90;;;;;;4982519;28;20316;-82
2023/01/13 08:50:17;;;;;;;19.97;4.40;;;7.10;99.90;;;;;;5006025;28;20221;-82
2023/01/13 08:52:47;;;;;;;16.33;4.03;;;7.20;99.90;;;;;;4988936;28;20323;-82
2023/01/13 08:55:14;;;;;;;12.57;3.40;;;7.30;99.90;;;;;;4987188;28;20222;-82
2023/01/13 08:57:40;;;;;;;22.00;4.63;;;7.40;99.90;;;;;;4988132;28;20255;-82
2023/01/13 09:00:09;;;;;;;19.20;3.67;;;7.40;99.90;;;;;;5004547;28;20593;-82
2023/01/13 09:02:37;;;;;;;17.03;3.90;;;7.50;99.90;;;;;;4998156;28;20254;-82
2023/01/13 09:05:06;;;;;;;13.47;4.10;;;7.60;99.90;;;;;;4981717;28;20301;-82
2023/01/13 09:07:33;;;;;;;14.53;3.23;;;7.60;99.90;;;;;;4981111;28;20232;-82
2023/01/13 09:10:00;;;;;;;16.47;3.80;;;7.60;99.90;;;;;;4985754;28;20234;-82
2023/01/13 09:15:12;;;;;;;17.17;3.43;;;7.70;99.90;;;;;;4985166;28;20226;-82
2023/01/13 09:17:39;;;;;;;18.97;4.13;;;7.60;99.90;;;;;;5002387;28;20920;-82
2023/01/13 09:20:08;;;;;;;13.70;3.63;;;7.70;99.90;;;;;;4999120;28;20795;-82
2023/01/13 09:22:39;;;;;;;16.83;3.47;;;7.70;99.90;;;;;;5001679;28;20222;-82
2023/01/13 09:25:06;;;;;;;11.97;3.57;;;7.70;99.90;;;;;;4986143;28;20218;-82
2023/01/13 09:27:33;;;;;;;10.33;2.53;;;7.90;99.90;;;;;;4986403;28;20246;-82
2023/01/13 09:29:59;;;;;;;15.43;3.90;;;8.10;99.90;;;;;;5003011;28;20230;-82
2023/01/13 09:32:26;;;;;;;10.10;3.70;;;8.30;99.90;;;;;;4999011;28;20243;-83
2023/01/13 09:35:01;;;;;;;12.57;3.13;;;8.50;99.90;;;;;;5001858;28;20999;-82
2023/01/13 09:37:31;;;;;;;13.50;3.50;;;8.60;99.90;;;;;;4984764;28;20296;-82
2023/01/13 09:39:57;;;;;;;12.00;2.67;;;8.60;99.90;;;;;;4976610;28;20227;-82
2023/01/13 09:45:20;;;;;;;12.00;2.83;;;8.70;99.90;;;;;;4982399;28;20223;-82
2023/01/13 09:47:54;;;;;;;9.83;2.33;;;8.80;99.90;;;;;;4983991;28;20226;-82
2023/01/13 09:50:34;;;;;;;13.83;3.13;;;8.90;99.90;;;;;;4981398;28;20271;-82
2023/01/13 09:53:02;;;;;;;10.97;2.80;;;9.00;99.90;;;;;;4982494;28;20228;-82
2023/01/13 09:55:35;;;;;;;10.77;3.33;;;9.00;99.90;;;;;;4996873;28;20243;-82
2023/01/13 09:58:07;;;;;;;14.30;2.77;;;8.90;99.90;;;;;;4987082;28;20218;-82
2023/01/13 10:00:38;;;;;;;8.93;2.20;;;8.80;99.90;;;;;;4984778;28;20227;-82
2023/01/13 10:03:19;;;;;;;10.80;2.80;;;8.80;99.90;;;;;;4981382;28;20930;-82
2023/01/13 10:05:55;;;;;;;10.53;3.10;;;8.70;99.90;;;;;;4983450;28;20226;-82
2023/01/13 10:08:26;;;;;;;11.77;2.70;;;8.60;99.90;;;;;;5003765;28;20763;-81
2023/01/13 10:10:56;;;;;;;10.87;2.23;;;8.50;99.90;;;;;;4986852;28;20226;-82
2023/01/13 10:13:24;;;;;;;11.77;2.60;;;8.50;99.90;;;;;;4998258;28;20236;-82
2023/01/13 10:16:01;;;;;;;11.93;2.30;;;8.50;99.90;;;;;;4984619;28;20763;-81
2023/01/13 10:18:38;;;;;;;8.70;2.13;;;8.50;99.90;;;;;;4982858;28;20225;-81
2023/01/13 10:21:20;;;;;;;8.47;2.57;;;8.40;99.90;;;;;;5004355;28;20230;-80
2023/01/13 10:24:02;;;;;;;13.67;2.90;;;8.30;99.90;;;;;;4985811;28;20231;-80
2023/01/13 10:26:48;;;;;;;9.60;2.30;;;8.30;99.90;;;;;;4982395;28;20230;-81
2023/01/13 10:29:24;;;;;;;8.90;2.47;;;8.30;99.90;;;;;;4996782;28;20227;-81
2023/01/13 10:31:51;;;;;;;10.53;2.73;;;8.20;99.90;;;;;;4981427;28;20227;-80
2023/01/13 10:34:19;;;;;;;10.30;2.33;;;8.10;99.90;;;;;;4997205;28;20260;-81
2023/01/13 10:37:00;;;;;;;9.37;2.27;;;8.20;99.90;;;;;;4997949;28;20222;-80
2023/01/13 10:39:28;;;;;;;5.67;1.77;;;8.10;99.90;;;;;;5000382;28;20234;-81
2023/01/13 10:42:03;;;;;;;8.27;2.37;;;8.10;99.90;;;;;;5003971;28;20237;-80
2023/01/13 10:44:32;;;;;;;12.07;2.80;;;8.00;99.90;;;;;;5000141;28;20597;-80
2023/01/13 10:46:59;;;;;;;9.77;2.70;;;8.00;99.90;;;;;;5001797;28;20230;-80
2023/01/13 10:49:31;;;;;;;10.23;3.00;;;8.10;99.90;;;;;;4987218;28;20230;-80
2023/01/13 10:51:58;;;;;;;9.23;2.20;;;8.00;99.90;;;;;;5000702;28;20228;-81
2023/01/13 10:54:29;;;;;;;9.30;2.20;;;8.10;99.90;;;;;;5003034;28;20226;-80
2023/01/13 10:57:18;;;;;;;11.13;2.70;;;8.10;99.90;;;;;;4988444;28;20712;-80
2023/01/13 10:59:44;;;;;;;10.27;2.63;;;8.10;99.90;;;;;;4980495;28;20255;-80
2023/01/13 11:02:22;;;;;;;11.10;2.60;;;8.10;99.90;;;;;;4995990;28;20231;-80
2023/01/13 11:05:01;;;;;;;8.37;2.07;;;8.20;99.90;;;;;;4996693;28;20272;-80
2023/01/13 11:07:31;;;;;;;8.37;2.43;;;8.20;99.90;;;;;;4999334;28;20308;-79
2023/01/13 11:10:14;;;;;;;9.20;2.20;;;8.20;99.90;;;;;;5006146;28;20272;-78
2023/01/13 11:12:47;;;;;;;11.00;2.83;;;8.20;99.90;;;;;;5002354;28;20224;-78
2023/01/13 11:15:19;;;;;;;8.27;2.37;;;8.20;99.90;;;;;;5002185;28;20225;-79
2023/01/13 11:17:49;;;;;;;6.47;2.10;;;8.10;99.90;;;;;;4986492;28;20268;-79
2023/01/13 11:20:20;;;;;;;6.93;2.57;;;8.10;99.90;;;;;;5001940;28;20597;-78
2023/01/13 11:22:54;;;;;;;10.80;2.23;;;8.00;99.90;;;;;;4982118;28;20237;-79
2023/01/13 11:25:31;;;;;;;9.97;2.80;;;7.90;99.90;;;;;;5001670;28;20707;-79
2023/01/13 11:28:04;;;;;;;10.40;2.80;;;7.80;99.90;;;;;;5000303;28;20228;-79
2023/01/13 11:30:37;;;;;;;8.77;2.17;;;7.70;99.90;;;;;;4983347;28;20639;-79
2023/01/13 11:33:20;;;;;;;8.70;2.10;;;7.60;99.90;;;;;;4995603;28;20734;-79
2023/01/13 11:35:56;;;;;;;8.83;2.10;;;7.60;99.90;;;;;;5000132;28;20236;-80
2023/01/13 11:38:33;;;;;;;10.80;2.37;;;7.50;99.90;;;;;;4998061;28;20232;-79
2023/01/13 11:41:09;;;;;;;7.80;2.50;;;7.50;99.90;;;;;;4984350;28;20286;-80
2023/01/13 11:43:45;;;;;;;8.97;2.17;;;7.50;99.90;;;;;;5001567;28;20378;-80
2023/01/13 11:46:12;;;;;;;8.57;2.20;;;7.50;99.90;;;;;;4980059;28;20292;-79
2023/01/13 11:48:42;;;;;;;7.50;1.97;;;7.50;99.90;;;;;;4987661;28;20230;-79
2023/01/13 11:51:20;;;;;;;8.17;2.50;;;7.50;99.90;;;;;;4980289;28;20231;-79
2023/01/13 11:54:12;;;;;;;8.03;2.23;;;7.60;99.90;;;;;;4997782;28;20234;-80
2023/01/13 11:56:58;;;;;;;6.53;2.60;;;7.60;99.90;;;;;;4998454;28;20234;-80
2023/01/13 11:59:49;;;;;;;9.53;3.63;;;7.60;99.90;;;;;;4973178;28;20229;-80
2023/01/13 12:02:36;;;;;;;9.03;1.93;;;7.70;99.90;;;;;;4996615;28;20311;-80
2023/01/13 12:05:10;;;;;;;11.03;2.97;;;7.70;99.90;;;;;;5000382;28;20281;-80
2023/01/13 12:07:47;;;;;;;7.40;2.13;;;7.70;99.90;;;;;;4997287;28;20232;-80
2023/01/13 12:10:24;;;;;;;7.17;1.60;;;7.70;99.90;;;;;;4980737;28;20237;-80
2023/01/13 12:13:03;;;;;;;6.50;2.07;;;7.70;99.90;;;;;;5003023;28;20233;-80
2023/01/13 12:15:57;;;;;;;7.07;1.90;;;7.70;99.90;;;;;;4983516;28;20221;-79
2023/01/13 12:18:40;;;;;;;5.80;1.60;;;7.70;99.90;;;;;;4996546;28;20233;-80
2023/01/13 12:21:18;;;;;;;6.93;1.90;;;7.70;99.90;;;;;;5000780;28;20218;-80
2023/01/13 12:23:54;;;;;;;5.90;1.77;;;7.60;99.90;;;;;;4985526;28;20220;-80
2023/01/13 12:26:22;;;;;;;6.87;2.40;;;7.60;99.90;;;;;;4999405;28;20230;-81
2023/01/13 12:28:55;;;;;;;8.80;2.37;;;7.60;99.90;;;;;;4985833;28;20272;-80
2023/01/13 12:31:24;;;;;;;7.27;2.17;;;7.50;99.90;;;;;;5003363;28;20242;-79
2023/01/13 12:34:13;;;;;;;9.43;2.37;;;7.50;99.90;;;;;;4985007;28;20226;-79
2023/01/13 12:36:51;;;;;;;8.47;2.50;;;7.40;99.90;;;;;;5005382;28;20257;-79
2023/01/13 12:39:28;;;;;;;10.10;2.53;;;7.40;99.90;;;;;;4996385;28;20792;-79
2023/01/13 12:45:20;;;;;;;7.83;2.90;;;7.40;99.90;;;;;;4999804;28;20235;-79
2023/01/13 12:47:47;;;;;;;8.93;2.90;;;7.40;99.90;;;;;;5005434;28;20271;-79
2023/01/13 12:50:39;;;;;;;6.23;2.60;;;7.40;99.90;;;;;;5002952;28;20247;-80
2023/01/13 12:53:31;;;;;;;9.07;2.47;;;7.40;99.90;;;;;;5003804;28;20225;-80
2023/01/13 12:56:26;;;;;;;8.60;2.83;;;7.30;99.90;;;;;;5002334;28;20737;-80
2023/01/13 12:59:13;;;;;;;7.70;2.37;;;7.40;99.90;;;;;;5003096;28;20235;-79
2023/01/13 13:01:41;;;;;;;8.37;2.60;;;7.40;99.90;;;;;;5001862;28;20541;-79
2023/01/13 13:04:09;;;;;;;8.00;2.70;;;7.30;99.90;;;;;;5008367;28;20670;-79
2023/01/13 13:06:38;;;;;;;10.63;2.67;;;7.30;99.90;;;;;;5000904;28;20225;-79
2023/01/13 13:09:13;;;;;;;10.83;2.77;;;7.30;99.90;;;;;;5003814;28;20711;-79
2023/01/13 13:15:05;;;;;;;8.00;2.83;;;7.30;99.90;;;;;;5002760;28;20566;-78
2023/01/13 13:17:44;;;;;;;6.43;2.27;;;7.20;99.90;;;;;;4995001;28;20228;-79
2023/01/13 13:20:52;;;;;;;9.07;2.60;;;7.20;99.90;;;;;;4990139;28;20265;-79
2023/01/13 13:23:35;;;;;;;8.97;3.03;;;7.20;99.90;;;;;;4991120;28;20478;-79
2023/01/13 13:26:15;;;;;;;6.40;2.70;;;7.20;99.90;;;;;;5003998;28;20233;-79
2023/01/13 13:28:48;;;;;;;8.07;2.33;;;7.20;99.90;;;;;;5002448;28;20299;-79
2023/01/13 13:31:23;;;;;;;9.00;2.70;;;7.10;99.90;;;;;;5001346;28;20874;-79
2023/01/13 13:34:08;;;;;;;10.37;2.13;;;7.10;99.90;;;;;;5004716;28;20332;-79
2023/01/13 13:37:06;;;;;;;7.93;2.47;;;7.10;99.90;;;;;;4978568;28;20236;-79
2023/01/13 13:48:01;;;;;;;7.27;2.20;;;7.20;99.90;;;;;;5002005;28;20228;-79
2023/01/13 13:50:33;;;;;;;9.43;2.37;;;7.20;99.90;;;;;;4995964;28;20284;-78
2023/01/13 13:53:04;;;;;;;10.30;2.10;;;7.20;99.90;;;;;;4982138;28;20314;-78
2023/01/13 13:55:32;;;;;;;9.00;2.20;;;7.10;99.90;;;;;;4987422;28;20224;-78
2023/01/13 13:58:00;;;;;;;8.83;2.00;;;7.10;99.90;;;;;;4992043;28;20224;-79
2023/01/13 14:00:29;;;;;;;7.93;2.47;;;7.10;99.90;;;;;;4985569;28;20226;-79
2023/01/13 14:02:59;;;;;;;10.40;2.53;;;7.10;99.90;;;;;;5007825;28;20229;-79
2023/01/13 14:05:28;;;;;;;9.77;2.43;;;7.00;99.90;;;;;;4988793;28;20228;-78